Terminal Aerodrome Forecast
Issued by NWS St Louis, MO

Home | Current Version | Previous Version | Text Only | Print | Product List | Glossary On
Versions: 1 2 3 4 5 6 7 8 9 10 11 12 13 14 15 16 17 18 19 20 21 22 23 24 25 26
000
FTUS43 KLSX 180111 AAA
TAFCOU
TAF AMD
KCOU 180111Z 1801/1824 28006KT 6SM BR OVC008
     FM180500 27005KT 5SM BR SCT010
     FM180700 26005KT 4SM BR SCT015
     FM181400 18005KT 5SM BR SCT015
     FM181600 17007KT P6SM SCT015=

USA.gov is the U.S. government's official web portal to all federal, state and local government web resources and services.